sensor_id;sensor_type;location;lat;lon;timestamp;pressure;altitude;pressure_sealevel;temperature;humidity
75414;BME280;64758;52.122;5.404;2022-11-20T00:01:20;101698.47;;;-3.59;92.18
75414;BME280;64758;52.122;5.404;2022-11-20T00:03:47;101709.81;;;-3.61;91.86
75414;BME280;64758;52.122;5.404;2022-11-20T00:06:16;101696.06;;;-3.63;92.68
75414;BME280;64758;52.122;5.404;2022-11-20T00:08:44;101703.88;;;-3.63;92.30
75414;BME280;64758;52.122;5.404;2022-11-20T00:11:13;101699.88;;;-3.70;92.91
75414;BME280;64758;52.122;5.404;2022-11-20T00:13:42;101691.50;;;-3.75;92.58
75414;BME280;64758;52.122;5.404;2022-11-20T00:16:11;101696.53;;;-3.72;92.34
75414;BME280;64758;52.122;5.404;2022-11-20T00:18:38;101697.44;;;-3.73;92.28
75414;BME280;64758;52.122;5.404;2022-11-20T00:21:06;101679.59;;;-3.79;92.30
75414;BME280;64758;52.122;5.404;2022-11-20T00:23:33;101687.47;;;-3.80;92.40
75414;BME280;64758;52.122;5.404;2022-11-20T00:26:08;101684.88;;;-3.80;92.33
75414;BME280;64758;52.122;5.404;2022-11-20T00:28:35;101693.72;;;-3.84;92.43
75414;BME280;64758;52.122;5.404;2022-11-20T00:31:07;101688.75;;;-3.89;92.85
75414;BME280;64758;52.122;5.404;2022-11-20T00:33:34;101690.34;;;-3.86;92.35
75414;BME280;64758;52.122;5.404;2022-11-20T00:36:06;101691.41;;;-3.90;92.24
75414;BME280;64758;52.122;5.404;2022-11-20T00:38:34;101679.59;;;-3.96;92.72
75414;BME280;64758;52.122;5.404;2022-11-20T00:41:02;101676.38;;;-4.01;93.30
75414;BME280;64758;52.122;5.404;2022-11-20T00:43:29;101689.13;;;-3.96;93.08
75414;BME280;64758;52.122;5.404;2022-11-20T00:46:00;101690.03;;;-3.97;93.34
75414;BME280;64758;52.122;5.404;2022-11-20T00:48:27;101696.91;;;-3.96;92.91
75414;BME280;64758;52.122;5.404;2022-11-20T00:50:54;101690.88;;;-3.97;92.56
75414;BME280;64758;52.122;5.404;2022-11-20T00:53:21;101682.34;;;-3.99;93.49
75414;BME280;64758;52.122;5.404;2022-11-20T00:55:59;101677.16;;;-3.99;93.62
75414;BME280;64758;52.122;5.404;2022-11-20T00:58:30;101673.66;;;-3.98;93.23
75414;BME280;64758;52.122;5.404;2022-11-20T01:01:17;101674.25;;;-3.93;93.19
75414;BME280;64758;52.122;5.404;2022-11-20T01:03:46;101677.00;;;-3.96;93.08
75414;BME280;64758;52.122;5.404;2022-11-20T01:06:16;101671.88;;;-3.97;93.50
75414;BME280;64758;52.122;5.404;2022-11-20T01:08:44;101672.88;;;-4.00;93.48
75414;BME280;64758;52.122;5.404;2022-11-20T01:11:17;101668.47;;;-3.98;93.76
75414;BME280;64758;52.122;5.404;2022-11-20T01:13:45;101675.31;;;-3.97;93.51
75414;BME280;64758;52.122;5.404;2022-11-20T01:16:15;101675.31;;;-3.97;93.53
75414;BME280;64758;52.122;5.404;2022-11-20T01:18:44;101667.69;;;-4.00;93.14
75414;BME280;64758;52.122;5.404;2022-11-20T01:21:13;101657.38;;;-4.01;92.59
75414;BME280;64758;52.122;5.404;2022-11-20T01:23:41;101655.63;;;-4.01;92.78
75414;BME280;64758;52.122;5.404;2022-11-20T01:26:13;101657.31;;;-4.00;93.01
75414;BME280;64758;52.122;5.404;2022-11-20T01:28:41;101658.22;;;-4.01;93.18
75414;BME280;64758;52.122;5.404;2022-11-20T01:33:42;101648.00;;;-4.04;93.40
75414;BME280;64758;52.122;5.404;2022-11-20T01:36:10;101658.38;;;-4.04;93.38
75414;BME280;64758;52.122;5.404;2022-11-20T01:38:38;101661.28;;;-4.10;92.72
75414;BME280;64758;52.122;5.404;2022-11-20T01:41:05;101658.69;;;-4.10;93.26
75414;BME280;64758;52.122;5.404;2022-11-20T01:43:32;101660.41;;;-4.10;92.77
75414;BME280;64758;52.122;5.404;2022-11-20T01:46:15;101661.56;;;-4.16;92.70
75414;BME280;64758;52.122;5.404;2022-11-20T01:48:58;101661.56;;;-4.16;92.17
75414;BME280;64758;52.122;5.404;2022-11-20T01:51:39;101655.91;;;-4.24;93.08
75414;BME280;64758;52.122;5.404;2022-11-20T01:54:13;101650.88;;;-4.27;92.22
75414;BME280;64758;52.122;5.404;2022-11-20T01:56:44;101652.53;;;-4.26;93.27
75414;BME280;64758;52.122;5.404;2022-11-20T01:59:13;101659.41;;;-4.25;92.93
75414;BME280;64758;52.122;5.404;2022-11-20T02:01:41;101651.00;;;-4.30;92.16
75414;BME280;64758;52.122;5.404;2022-11-20T02:04:09;101653.50;;;-4.28;92.93
75414;BME280;64758;52.122;5.404;2022-11-20T02:06:43;101649.31;;;-4.31;92.54
75414;BME280;64758;52.122;5.404;2022-11-20T02:09:10;101650.38;;;-4.35;92.74
75414;BME280;64758;52.122;5.404;2022-11-20T02:11:36;101648.75;;;-4.37;92.76
75414;BME280;64758;52.122;5.404;2022-11-20T02:14:03;101654.81;;;-4.37;92.84
75414;BME280;64758;52.122;5.404;2022-11-20T02:16:34;101646.41;;;-4.42;92.25
75414;BME280;64758;52.122;5.404;2022-11-20T02:19:07;101649.19;;;-4.46;92.09
75414;BME280;64758;52.122;5.404;2022-11-20T02:24:14;101645.94;;;-4.50;91.96
75414;BME280;64758;52.122;5.404;2022-11-20T02:29:23;101642.09;;;-4.60;91.42
75414;BME280;64758;52.122;5.404;2022-11-20T02:31:51;101641.94;;;-4.57;91.71
75414;BME280;64758;52.122;5.404;2022-11-20T02:34:19;101640.41;;;-4.61;91.13
75414;BME280;64758;52.122;5.404;2022-11-20T02:36:46;101630.09;;;-4.62;91.41
75414;BME280;64758;52.122;5.404;2022-11-20T02:39:15;101632.69;;;-4.62;92.02
75414;BME280;64758;52.122;5.404;2022-11-20T02:41:44;101620.63;;;-4.63;92.47
75414;BME280;64758;52.122;5.404;2022-11-20T02:44:10;101620.78;;;-4.66;92.44
75414;BME280;64758;52.122;5.404;2022-11-20T02:46:37;101618.44;;;-4.71;93.22
75414;BME280;64758;52.122;5.404;2022-11-20T02:49:04;101625.00;;;-4.64;92.07
75414;BME280;64758;52.122;5.404;2022-11-20T02:51:31;101616.66;;;-4.70;92.72
75414;BME280;64758;52.122;5.404;2022-11-20T02:53:58;101622.84;;;-4.73;92.31
75414;BME280;64758;52.122;5.404;2022-11-20T02:56:25;101617.72;;;-4.74;93.32
75414;BME280;64758;52.122;5.404;2022-11-20T02:58:51;101609.41;;;-4.81;92.63
75414;BME280;64758;52.122;5.404;2022-11-20T03:01:18;101615.34;;;-4.79;91.92
75414;BME280;64758;52.122;5.404;2022-11-20T03:03:45;101608.41;;;-4.78;92.31
75414;BME280;64758;52.122;5.404;2022-11-20T03:06:11;101604.84;;;-4.76;92.82
75414;BME280;64758;52.122;5.404;2022-11-20T03:08:38;101608.25;;;-4.75;91.77
75414;BME280;64758;52.122;5.404;2022-11-20T03:11:06;101606.53;;;-4.75;92.79
75414;BME280;64758;52.122;5.404;2022-11-20T03:13:33;101598.75;;;-4.75;92.66
75414;BME280;64758;52.122;5.404;2022-11-20T03:16:12;101610.78;;;-4.74;92.15
75414;BME280;64758;52.122;5.404;2022-11-20T03:18:41;101612.53;;;-4.74;91.61
75414;BME280;64758;52.122;5.404;2022-11-20T03:21:09;101603.03;;;-4.74;92.65
75414;BME280;64758;52.122;5.404;2022-11-20T03:23:36;101596.22;;;-4.76;92.11
75414;BME280;64758;52.122;5.404;2022-11-20T03:26:19;101607.56;;;-4.79;92.82
75414;BME280;64758;52.122;5.404;2022-11-20T03:28:51;101602.53;;;-4.82;91.60
75414;BME280;64758;52.122;5.404;2022-11-20T03:31:20;101596.88;;;-4.90;91.51
75414;BME280;64758;52.122;5.404;2022-11-20T03:33:47;101593.56;;;-4.93;91.68
75414;BME280;64758;52.122;5.404;2022-11-20T03:36:14;101599.59;;;-4.93;92.17
75414;BME280;64758;52.122;5.404;2022-11-20T03:38:41;101593.56;;;-4.93;91.65
75414;BME280;64758;52.122;5.404;2022-11-20T03:41:11;101589.44;;;-4.97;91.01
75414;BME280;64758;52.122;5.404;2022-11-20T03:43:38;101583.56;;;-5.01;91.79
75414;BME280;64758;52.122;5.404;2022-11-20T03:46:06;101594.06;;;-5.03;91.13
75414;BME280;64758;52.122;5.404;2022-11-20T03:48:33;101573.50;;;-5.06;90.72
75414;BME280;64758;52.122;5.404;2022-11-20T03:51:17;101578.81;;;-5.09;92.00
75414;BME280;64758;52.122;5.404;2022-11-20T03:53:45;101578.97;;;-5.12;90.59
75414;BME280;64758;52.122;5.404;2022-11-20T03:56:13;101587.22;;;-5.23;91.95
75414;BME280;64758;52.122;5.404;2022-11-20T03:58:40;101573.50;;;-5.25;91.92
75414;BME280;64758;52.122;5.404;2022-11-20T04:01:13;101583.66;;;-5.20;91.25
75414;BME280;64758;52.122;5.404;2022-11-20T04:03:40;101577.69;;;-5.22;92.14
75414;BME280;64758;52.122;5.404;2022-11-20T04:06:14;101573.28;;;-5.20;91.88
75414;BME280;64758;52.122;5.404;2022-11-20T04:08:41;101566.38;;;-5.20;92.36
75414;BME280;64758;52.122;5.404;2022-11-20T04:11:14;101574.06;;;-5.18;92.80
75414;BME280;64758;52.122;5.404;2022-11-20T04:13:42;101564.63;;;-5.19;92.76
75414;BME280;64758;52.122;5.404;2022-11-20T04:16:09;101569.16;;;-5.24;91.21
75414;BME280;64758;52.122;5.404;2022-11-20T04:18:36;101566.44;;;-5.21;92.15
75414;BME280;64758;52.122;5.404;2022-11-20T04:21:04;101563.78;;;-5.20;91.22
75414;BME280;64758;52.122;5.404;2022-11-20T04:23:31;101560.34;;;-5.20;92.14
75414;BME280;64758;52.122;5.404;2022-11-20T04:26:08;101567.06;;;-5.16;91.79
75414;BME280;64758;52.122;5.404;2022-11-20T04:28:35;101568.88;;;-5.18;91.89
75414;BME280;64758;52.122;5.404;2022-11-20T04:31:11;101568.88;;;-5.18;92.35
75414;BME280;64758;52.122;5.404;2022-11-20T04:33:39;101568.88;;;-5.18;91.87
75414;BME280;64758;52.122;5.404;2022-11-20T04:36:09;101564.84;;;-5.24;92.18
75414;BME280;64758;52.122;5.404;2022-11-20T04:38:36;101551.81;;;-5.22;91.18
75414;BME280;64758;52.122;5.404;2022-11-20T04:41:06;101555.41;;;-5.25;91.63
75414;BME280;64758;52.122;5.404;2022-11-20T04:43:33;101552.81;;;-5.25;92.24
75414;BME280;64758;52.122;5.404;2022-11-20T04:46:00;101545.09;;;-5.26;91.42
75414;BME280;64758;52.122;5.404;2022-11-20T04:48:28;101550.22;;;-5.25;91.11
75414;BME280;64758;52.122;5.404;2022-11-20T04:50:55;101543.69;;;-5.33;92.03
75414;BME280;64758;52.122;5.404;2022-11-20T04:53:22;101555.66;;;-5.31;91.36
75414;BME280;64758;52.122;5.404;2022-11-20T04:55:49;101543.56;;;-5.30;90.89
75414;BME280;64758;52.122;5.404;2022-11-20T04:58:16;101541.97;;;-5.33;91.64
75414;BME280;64758;52.122;5.404;2022-11-20T05:00:42;101534.34;;;-5.36;91.55
75414;BME280;64758;52.122;5.404;2022-11-20T05:03:09;101548.03;;;-5.34;91.97
75414;BME280;64758;52.122;5.404;2022-11-20T05:05:35;101540.34;;;-5.35;92.21
75414;BME280;64758;52.122;5.404;2022-11-20T05:08:02;101542.72;;;-5.31;92.66
75414;BME280;64758;52.122;5.404;2022-11-20T05:10:28;101538.38;;;-5.30;91.70
75414;BME280;64758;52.122;5.404;2022-11-20T05:12:57;101541.81;;;-5.30;92.62
75414;BME280;64758;52.122;5.404;2022-11-20T05:15:23;101536.03;;;-5.35;92.60
75414;BME280;64758;52.122;5.404;2022-11-20T05:17:51;101538.66;;;-5.36;91.49
75414;BME280;64758;52.122;5.404;2022-11-20T05:20:19;101535.16;;;-5.35;91.76
75414;BME280;64758;52.122;5.404;2022-11-20T05:22:45;101531.81;;;-5.37;91.64
75414;BME280;64758;52.122;5.404;2022-11-20T05:25:12;101520.00;;;-5.43;91.88
75414;BME280;64758;52.122;5.404;2022-11-20T05:27:38;101516.50;;;-5.42;92.41
75414;BME280;64758;52.122;5.404;2022-11-20T05:30:05;101516.69;;;-5.46;92.09
75414;BME280;64758;52.122;5.404;2022-11-20T05:32:32;101513.06;;;-5.42;91.36
75414;BME280;64758;52.122;5.404;2022-11-20T05:34:58;101507.97;;;-5.44;92.03
75414;BME280;64758;52.122;5.404;2022-11-20T05:37:25;101502.84;;;-5.45;91.80
75414;BME280;64758;52.122;5.404;2022-11-20T05:39:51;101493.41;;;-5.46;93.09
75414;BME280;64758;52.122;5.404;2022-11-20T05:42:18;101495.09;;;-5.45;91.98
75414;BME280;64758;52.122;5.404;2022-11-20T05:44:57;101502.09;;;-5.47;91.26
75414;BME280;64758;52.122;5.404;2022-11-20T05:47:25;101502.16;;;-5.49;91.67
75414;BME280;64758;52.122;5.404;2022-11-20T05:49:52;101518.59;;;-5.50;92.07
75414;BME280;64758;52.122;5.404;2022-11-20T05:52:18;101516.97;;;-5.52;92.65
75414;BME280;64758;52.122;5.404;2022-11-20T05:54:45;101523.81;;;-5.51;92.39
75414;BME280;64758;52.122;5.404;2022-11-20T05:57:11;101533.22;;;-5.49;91.14
75414;BME280;64758;52.122;5.404;2022-11-20T05:59:38;101525.44;;;-5.49;92.37
75414;BME280;64758;52.122;5.404;2022-11-20T06:02:04;101534.94;;;-5.49;92.13
75414;BME280;64758;52.122;5.404;2022-11-20T06:04:31;101530.75;;;-5.52;90.97
75414;BME280;64758;52.122;5.404;2022-11-20T06:06:57;101541.03;;;-5.50;92.43
75414;BME280;64758;52.122;5.404;2022-11-20T06:09:24;101537.81;;;-5.55;90.70
75414;BME280;64758;52.122;5.404;2022-11-20T06:11:50;101544.94;;;-5.60;91.13
75414;BME280;64758;52.122;5.404;2022-11-20T06:14:17;101545.84;;;-5.61;90.73
75414;BME280;64758;52.122;5.404;2022-11-20T06:16:43;101547.66;;;-5.63;91.07
75414;BME280;64758;52.122;5.404;2022-11-20T06:19:10;101547.88;;;-5.68;90.82
75414;BME280;64758;52.122;5.404;2022-11-20T06:21:36;101548.78;;;-5.69;90.65
75414;BME280;64758;52.122;5.404;2022-11-20T06:24:03;101537.91;;;-5.77;90.63
75414;BME280;64758;52.122;5.404;2022-11-20T06:26:30;101546.50;;;-5.76;91.16
75414;BME280;64758;52.122;5.404;2022-11-20T06:28:56;101552.56;;;-5.77;91.01
75414;BME280;64758;52.122;5.404;2022-11-20T06:31:24;101545.53;;;-5.74;90.99
75414;BME280;64758;52.122;5.404;2022-11-20T06:33:52;101548.00;;;-5.71;90.54
75414;BME280;64758;52.122;5.404;2022-11-20T06:36:21;101545.31;;;-5.69;90.85
75414;BME280;64758;52.122;5.404;2022-11-20T06:38:48;101542.81;;;-5.71;90.70
75414;BME280;64758;52.122;5.404;2022-11-20T06:41:18;101547.09;;;-5.70;90.71
75414;BME280;64758;52.122;5.404;2022-11-20T06:43:44;101541.69;;;-5.65;90.41
75414;BME280;64758;52.122;5.404;2022-11-20T06:46:12;101557.22;;;-5.65;90.39
75414;BME280;64758;52.122;5.404;2022-11-20T06:48:40;101549.41;;;-5.64;91.56
75414;BME280;64758;52.122;5.404;2022-11-20T06:51:07;101540.03;;;-5.66;91.17
75414;BME280;64758;52.122;5.404;2022-11-20T06:53:34;101540.94;;;-5.67;91.61
75414;BME280;64758;52.122;5.404;2022-11-20T06:56:02;101540.75;;;-5.63;91.03
75414;BME280;64758;52.122;5.404;2022-11-20T06:58:30;101537.28;;;-5.63;91.54
75414;BME280;64758;52.122;5.404;2022-11-20T07:01:06;101540.75;;;-5.63;91.46
75414;BME280;64758;52.122;5.404;2022-11-20T07:03:33;101521.91;;;-5.66;91.22
75414;BME280;64758;52.122;5.404;2022-11-20T07:06:00;101520.88;;;-5.62;91.67
75414;BME280;64758;52.122;5.404;2022-11-20T07:08:27;101520.97;;;-5.64;91.55
75414;BME280;64758;52.122;5.404;2022-11-20T07:10:57;101520.88;;;-5.62;90.97
75414;BME280;64758;52.122;5.404;2022-11-20T07:13:26;101522.56;;;-5.61;91.27
75414;BME280;64758;52.122;5.404;2022-11-20T07:15:53;101518.25;;;-5.61;92.16
75414;BME280;64758;52.122;5.404;2022-11-20T07:18:20;101523.06;;;-5.53;90.78
75414;BME280;64758;52.122;5.404;2022-11-20T07:20:47;101527.44;;;-5.55;91.98
75414;BME280;64758;52.122;5.404;2022-11-20T07:23:13;101513.63;;;-5.54;90.72
75414;BME280;64758;52.122;5.404;2022-11-20T07:25:40;101518.66;;;-5.51;91.53
75414;BME280;64758;52.122;5.404;2022-11-20T07:28:06;101514.06;;;-5.45;91.36
75414;BME280;64758;52.122;5.404;2022-11-20T07:30:33;101514.88;;;-5.44;90.89
75414;BME280;64758;52.122;5.404;2022-11-20T07:32:59;101505.38;;;-5.44;90.91
75414;BME280;64758;52.122;5.404;2022-11-20T07:35:26;101512.72;;;-5.35;90.71
75414;BME280;64758;52.122;5.404;2022-11-20T07:37:52;101513.28;;;-5.28;91.06
75414;BME280;64758;52.122;5.404;2022-11-20T07:40:19;101506.13;;;-5.23;92.04
75414;BME280;64758;52.122;5.404;2022-11-20T07:42:50;101506.75;;;-5.18;92.00
75414;BME280;64758;52.122;5.404;2022-11-20T07:45:18;101513.41;;;-5.13;91.74
75414;BME280;64758;52.122;5.404;2022-11-20T07:47:44;101508.94;;;-5.09;91.47
75414;BME280;64758;52.122;5.404;2022-11-20T07:50:11;101512.19;;;-5.06;90.34
75414;BME280;64758;52.122;5.404;2022-11-20T07:52:38;101510.19;;;-5.00;92.40
75414;BME280;64758;52.122;5.404;2022-11-20T07:55:05;101519.09;;;-4.88;90.94
75414;BME280;64758;52.122;5.404;2022-11-20T07:57:31;101529.09;;;-4.81;91.94
75414;BME280;64758;52.122;5.404;2022-11-20T07:59:58;101532.09;;;-4.71;91.36
75414;BME280;64758;52.122;5.404;2022-11-20T08:02:25;101523.19;;;-4.66;91.44
75414;BME280;64758;52.122;5.404;2022-11-20T08:04:51;101520.31;;;-4.60;91.25
75414;BME280;64758;52.122;5.404;2022-11-20T08:07:18;101522.47;;;-4.51;91.00
75414;BME280;64758;52.122;5.404;2022-11-20T08:09:44;101506.59;;;-4.45;91.77
75414;BME280;64758;52.122;5.404;2022-11-20T08:12:21;101504.31;;;-4.34;92.75
75414;BME280;64758;52.122;5.404;2022-11-20T08:15:06;101497.91;;;-4.27;92.38
75414;BME280;64758;52.122;5.404;2022-11-20T08:17:38;101495.69;;;-4.17;92.37
75414;BME280;64758;52.122;5.404;2022-11-20T08:20:05;101489.22;;;-4.09;92.29
75414;BME280;64758;52.122;5.404;2022-11-20T08:22:32;101481.63;;;-3.96;92.24
75414;BME280;64758;52.122;5.404;2022-11-20T08:24:58;101486.28;;;-3.86;92.39
75414;BME280;64758;52.122;5.404;2022-11-20T08:27:25;101486.63;;;-3.77;91.55
75414;BME280;64758;52.122;5.404;2022-11-20T08:29:51;101485.38;;;-3.70;91.87
75414;BME280;64758;52.122;5.404;2022-11-20T08:32:18;101486.56;;;-3.60;91.39
75414;BME280;64758;52.122;5.404;2022-11-20T08:34:44;101488.59;;;-3.49;91.83
75414;BME280;64758;52.122;5.404;2022-11-20T08:37:11;101488.69;;;-3.35;92.00
75414;BME280;64758;52.122;5.404;2022-11-20T08:39:37;101495.22;;;-3.28;92.65
75414;BME280;64758;52.122;5.404;2022-11-20T08:42:07;101486.19;;;-3.21;92.28
75414;BME280;64758;52.122;5.404;2022-11-20T08:44:34;101483.75;;;-3.09;92.65
75414;BME280;64758;52.122;5.404;2022-11-20T08:47:00;101482.22;;;-2.97;92.74
75414;BME280;64758;52.122;5.404;2022-11-20T08:49:27;101482.56;;;-2.88;92.53
75414;BME280;64758;52.122;5.404;2022-11-20T08:51:53;101487.44;;;-2.82;92.73
75414;BME280;64758;52.122;5.404;2022-11-20T08:54:22;101487.56;;;-2.69;92.80
75414;BME280;64758;52.122;5.404;2022-11-20T08:56:49;101478.47;;;-2.62;92.58
75414;BME280;64758;52.122;5.404;2022-11-20T08:59:15;101470.25;;;-2.55;93.17
75414;BME280;64758;52.122;5.404;2022-11-20T09:02:02;101473.22;;;-2.47;92.62
75414;BME280;64758;52.122;5.404;2022-11-20T09:04:28;101477.31;;;-2.43;92.97
75414;BME280;64758;52.122;5.404;2022-11-20T09:06:55;101476.97;;;-2.37;92.68
75414;BME280;64758;52.122;5.404;2022-11-20T09:09:21;101475.03;;;-2.34;92.71
75414;BME280;64758;52.122;5.404;2022-11-20T09:11:48;101475.13;;;-2.35;92.77
75414;BME280;64758;52.122;5.404;2022-11-20T09:14:16;101467.63;;;-2.26;92.69
75414;BME280;64758;52.122;5.404;2022-11-20T09:16:45;101463.19;;;-2.24;93.01
75414;BME280;64758;52.122;5.404;2022-11-20T09:19:12;101463.63;;;-2.17;93.11
75414;BME280;64758;52.122;5.404;2022-11-20T09:21:58;101458.53;;;-2.19;92.88
75414;BME280;64758;52.122;5.404;2022-11-20T09:24:26;101451.38;;;-2.15;93.58
75414;BME280;64758;52.122;5.404;2022-11-20T09:26:54;101445.44;;;-2.03;93.80
75414;BME280;64758;52.122;5.404;2022-11-20T09:29:20;101438.88;;;-1.95;93.00
75414;BME280;64758;52.122;5.404;2022-11-20T09:31:47;101433.47;;;-1.92;93.63
75414;BME280;64758;52.122;5.404;2022-11-20T09:34:13;101428.16;;;-1.76;92.96
75414;BME280;64758;52.122;5.404;2022-11-20T09:36:40;101428.06;;;-1.61;93.33
75414;BME280;64758;52.122;5.404;2022-11-20T09:39:06;101424.03;;;-1.52;93.62
75414;BME280;64758;52.122;5.404;2022-11-20T09:46:53;101419.94;;;-1.16;92.35
75414;BME280;64758;52.122;5.404;2022-11-20T09:55:10;101409.72;;;-0.93;93.18
75414;BME280;64758;52.122;5.404;2022-11-20T09:57:41;101410.69;;;-0.81;93.30
75414;BME280;64758;52.122;5.404;2022-11-20T10:00:11;101404.66;;;-0.69;92.24
75414;BME280;64758;52.122;5.404;2022-11-20T10:03:03;101412.31;;;-0.54;93.31
75414;BME280;64758;52.122;5.404;2022-11-20T10:05:53;101397.72;;;-0.44;92.39
75414;BME280;64758;52.122;5.404;2022-11-20T10:08:27;101398.06;;;-0.36;92.77
75414;BME280;64758;52.122;5.404;2022-11-20T10:11:13;101386.47;;;-0.32;91.94
75414;BME280;64758;52.122;5.404;2022-11-20T10:14:21;101373.41;;;-0.19;92.55
75414;BME280;64758;52.122;5.404;2022-11-20T10:32:39;101355.44;;;0.37;91.24
75414;BME280;64758;52.122;5.404;2022-11-20T10:35:21;101347.28;;;0.41;90.90
75414;BME280;64758;52.122;5.404;2022-11-20T10:37:55;101339.25;;;0.44;91.16
75414;BME280;64758;52.122;5.404;2022-11-20T10:40:35;101333.00;;;0.58;91.33
75414;BME280;64758;52.122;5.404;2022-11-20T10:43:14;101322.97;;;0.64;91.54
75414;BME280;64758;52.122;5.404;2022-11-20T10:48:23;101337.19;;;0.84;91.31
75414;BME280;64758;52.122;5.404;2022-11-20T10:50:59;101315.09;;;0.88;91.59
75414;BME280;64758;52.122;5.404;2022-11-20T10:56:20;101299.91;;;0.93;91.76
75414;BME280;64758;52.122;5.404;2022-11-20T11:01:41;101296.84;;;1.10;91.89
75414;BME280;64758;52.122;5.404;2022-11-20T11:07:27;101277.28;;;1.26;91.42
75414;BME280;64758;52.122;5.404;2022-11-20T11:09:55;101280.03;;;1.35;91.47
75414;BME280;64758;52.122;5.404;2022-11-20T11:12:25;101276.22;;;1.39;91.58
75414;BME280;64758;52.122;5.404;2022-11-20T11:14:53;101266.47;;;1.41;91.80
75414;BME280;64758;52.122;5.404;2022-11-20T11:17:30;101267.69;;;1.48;91.78
75414;BME280;64758;52.122;5.404;2022-11-20T11:20:21;101266.13;;;1.57;91.93
75414;BME280;64758;52.122;5.404;2022-11-20T11:22:56;101259.59;;;1.62;92.01
75414;BME280;64758;52.122;5.404;2022-11-20T11:25:30;101251.13;;;1.70;92.13
75414;BME280;64758;52.122;5.404;2022-11-20T11:28:20;101249.47;;;1.69;92.10
75414;BME280;64758;52.122;5.404;2022-11-20T11:30:47;101245.41;;;1.76;91.94
75414;BME280;64758;52.122;5.404;2022-11-20T11:33:25;101231.50;;;1.75;91.92
75414;BME280;64758;52.122;5.404;2022-11-20T11:35:54;101218.50;;;1.74;92.45
75414;BME280;64758;52.122;5.404;2022-11-20T11:38:44;101227.22;;;1.74;92.28
75414;BME280;64758;52.122;5.404;2022-11-20T11:41:20;101204.59;;;1.73;92.94
75414;BME280;64758;52.122;5.404;2022-11-20T11:44:30;101205.09;;;1.78;93.42
75414;BME280;64758;52.122;5.404;2022-11-20T11:47:37;101211.13;;;1.79;93.23
75414;BME280;64758;52.122;5.404;2022-11-20T11:53:14;101193.50;;;1.92;92.96
75414;BME280;64758;52.122;5.404;2022-11-20T11:55:45;101195.41;;;1.90;93.32
75414;BME280;64758;52.122;5.404;2022-11-20T12:03:42;101180.38;;;2.03;94.75
75414;BME280;64758;52.122;5.404;2022-11-20T12:06:14;101169.66;;;2.06;95.06
75414;BME280;64758;52.122;5.404;2022-11-20T12:08:57;101166.78;;;2.09;94.88
75414;BME280;64758;52.122;5.404;2022-11-20T12:11:54;101160.22;;;2.14;94.94
75414;BME280;64758;52.122;5.404;2022-11-20T12:14:34;101163.31;;;2.19;95.72
75414;BME280;64758;52.122;5.404;2022-11-20T12:17:02;101153.53;;;2.21;95.42
75414;BME280;64758;52.122;5.404;2022-11-20T12:19:34;101142.19;;;2.21;95.24
75414;BME280;64758;52.122;5.404;2022-11-20T12:22:12;101149.00;;;2.23;95.67
75414;BME280;64758;52.122;5.404;2022-11-20T12:25:17;101149.69;;;2.25;95.72
75414;BME280;64758;52.122;5.404;2022-11-20T12:30:30;101145.47;;;2.34;95.62
75414;BME280;64758;52.122;5.404;2022-11-20T12:36:17;101148.94;;;2.34;95.60
75414;BME280;64758;52.122;5.404;2022-11-20T12:39:18;101135.00;;;2.34;95.64
75414;BME280;64758;52.122;5.404;2022-11-20T12:59:17;101085.97;;;2.25;98.13
75414;BME280;64758;52.122;5.404;2022-11-20T13:01:52;101069.88;;;2.29;97.61
75414;BME280;64758;52.122;5.404;2022-11-20T13:06:46;101057.34;;;2.33;98.15
75414;BME280;64758;52.122;5.404;2022-11-20T13:09:16;101057.22;;;2.34;98.22
75414;BME280;64758;52.122;5.404;2022-11-20T13:11:51;101054.63;;;2.34;98.65
75414;BME280;64758;52.122;5.404;2022-11-20T13:19:41;101030.88;;;2.36;98.30
75414;BME280;64758;52.122;5.404;2022-11-20T13:22:08;101041.09;;;2.39;98.92
75414;BME280;64758;52.122;5.404;2022-11-20T13:24:35;101033.69;;;2.44;98.20
75414;BME280;64758;52.122;5.404;2022-11-20T13:27:18;101026.53;;;2.46;99.23
75414;BME280;64758;52.122;5.404;2022-11-20T13:30:13;101021.88;;;2.49;99.08
75414;BME280;64758;52.122;5.404;2022-11-20T13:32:51;101016.88;;;2.46;98.99
75414;BME280;64758;52.122;5.404;2022-11-20T13:35:41;101014.00;;;2.49;99.15
75414;BME280;64758;52.122;5.404;2022-11-20T13:38:11;101026.00;;;2.51;99.05
75414;BME280;64758;52.122;5.404;2022-11-20T13:40:59;101015.94;;;2.47;99.48
75414;BME280;64758;52.122;5.404;2022-11-20T13:43:47;101008.06;;;2.47;99.12
75414;BME280;64758;52.122;5.404;2022-11-20T13:46:14;100994.97;;;2.47;98.94
75414;BME280;64758;52.122;5.404;2022-11-20T13:48:44;100997.44;;;2.48;99.29
75414;BME280;64758;52.122;5.404;2022-11-20T13:56:47;100986.13;;;2.48;99.04
75414;BME280;64758;52.122;5.404;2022-11-20T14:02:02;101001.44;;;2.52;100.00
75414;BME280;64758;52.122;5.404;2022-11-20T14:04:36;100994.81;;;2.48;99.56
75414;BME280;64758;52.122;5.404;2022-11-20T14:07:05;100998.13;;;2.50;99.97
75414;BME280;64758;52.122;5.404;2022-11-20T14:09:33;100987.66;;;2.50;99.64
75414;BME280;64758;52.122;5.404;2022-11-20T14:12:02;100976.47;;;2.48;99.50
75414;BME280;64758;52.122;5.404;2022-11-20T14:14:30;100963.50;;;2.47;99.57
75414;BME280;64758;52.122;5.404;2022-11-20T14:17:17;100956.59;;;2.46;99.72
75414;BME280;64758;52.122;5.404;2022-11-20T14:19:45;100940.72;;;2.47;100.00
75414;BME280;64758;52.122;5.404;2022-11-20T14:22:24;100935.63;;;2.46;100.00
75414;BME280;64758;52.122;5.404;2022-11-20T14:27:40;100910.66;;;2.42;100.00
75414;BME280;64758;52.122;5.404;2022-11-20T14:30:16;100928.03;;;2.43;100.00
75414;BME280;64758;52.122;5.404;2022-11-20T14:32:44;100943.06;;;2.41;100.00
75414;BME280;64758;52.122;5.404;2022-11-20T14:35:34;100932.44;;;2.43;100.00
75414;BME280;64758;52.122;5.404;2022-11-20T14:38:02;100925.53;;;2.42;100.00
75414;BME280;64758;52.122;5.404;2022-11-20T14:40:31;100906.50;;;2.40;100.00
75414;BME280;64758;52.122;5.404;2022-11-20T14:42:59;100910.66;;;2.42;100.00
75414;BME280;64758;52.122;5.404;2022-11-20T14:45:26;100903.59;;;2.43;100.00
75414;BME280;64758;52.122;5.404;2022-11-20T14:47:55;100901.13;;;2.41;100.00